createdAt,value
2022-10-17T00:00:31.199Z,17.72
2022-10-17T00:03:04.186Z,17.68
2022-10-17T00:05:34.252Z,17.69
2022-10-17T00:08:04.339Z,17.74
2022-10-17T00:10:34.425Z,17.82
2022-10-17T00:13:04.726Z,17.86
2022-10-17T00:15:35.346Z,17.87
2022-10-17T00:18:08.132Z,17.89
2022-10-17T00:20:38.391Z,17.87
2022-10-17T00:23:08.520Z,17.85
2022-10-17T00:25:38.712Z,17.81
2022-10-17T00:28:09.028Z,17.82
2022-10-17T00:30:39.147Z,17.82
2022-10-17T00:33:11.848Z,17.75
2022-10-17T00:35:41.944Z,17.75
2022-10-17T00:38:13.604Z,17.69
2022-10-17T00:40:43.805Z,17.70
2022-10-17T00:43:20.009Z,17.74
2022-10-17T00:45:50.568Z,17.77
2022-10-17T00:48:25.462Z,17.76
2022-10-17T00:50:55.810Z,17.63
2022-10-17T00:53:26.141Z,17.55
2022-10-17T00:55:57.078Z,17.46
2022-10-17T00:58:27.241Z,17.44
2022-10-17T01:00:57.430Z,17.44
2022-10-17T01:03:30.435Z,17.49
2022-10-17T01:06:00.778Z,17.51
2022-10-17T01:08:31.188Z,17.50
2022-10-17T01:11:13.771Z,17.45
2022-10-17T01:13:53.120Z,17.40
2022-10-17T01:16:40.812Z,17.40
2022-10-17T01:19:45.798Z,17.33
2022-10-17T01:22:25.493Z,17.27
2022-10-17T01:25:28.214Z,17.27
2022-10-17T01:28:21.952Z,17.27
2022-10-17T01:31:02.519Z,17.29
2022-10-17T01:33:47.718Z,17.27
2022-10-17T01:36:31.241Z,17.31
2022-10-17T01:39:13.799Z,17.28
2022-10-17T01:41:49.145Z,17.34
2022-10-17T01:44:25.768Z,17.43
2022-10-17T01:47:06.727Z,17.53
2022-10-17T01:49:37.672Z,17.55
2022-10-17T01:52:12.737Z,17.61
2022-10-17T01:54:48.766Z,17.63
2022-10-17T01:57:27.341Z,17.66
2022-10-17T01:59:59.546Z,17.58
2022-10-17T02:02:33.307Z,17.63
2022-10-17T02:05:06.831Z,17.69
2022-10-17T02:07:37.165Z,17.72
2022-10-17T02:10:15.134Z,17.78
2022-10-17T02:12:55.467Z,17.85
2022-10-17T02:15:50.134Z,17.92
2022-10-17T02:18:47.591Z,17.93
2022-10-17T02:21:27.601Z,18.00
2022-10-17T02:24:08.228Z,17.97
2022-10-17T02:26:45.745Z,18.01
2022-10-17T02:29:22.549Z,18.02
2022-10-17T02:31:58.969Z,18.00
2022-10-17T02:34:36.649Z,18.00
2022-10-17T02:37:10.488Z,18.00
2022-10-17T02:39:43.230Z,17.98
2022-10-17T02:42:17.218Z,17.94
2022-10-17T02:44:49.443Z,17.95
2022-10-17T02:47:26.200Z,17.87
2022-10-17T02:50:01.257Z,17.88
2022-10-17T02:52:38.120Z,17.88
2022-10-17T02:55:17.378Z,17.87
2022-10-17T02:57:52.386Z,17.87
2022-10-17T03:00:24.795Z,17.88
2022-10-17T03:02:57.524Z,17.90
2022-10-17T03:05:32.766Z,17.92
2022-10-17T03:08:02.896Z,17.96
2022-10-17T03:10:33.018Z,17.98
2022-10-17T03:13:03.092Z,17.99
2022-10-17T03:15:34.240Z,17.96
2022-10-17T03:18:04.553Z,17.98
2022-10-17T03:20:37.379Z,17.99
2022-10-17T03:23:07.530Z,18.02
2022-10-17T03:25:37.796Z,18.05
2022-10-17T03:28:08.866Z,18.04
2022-10-17T03:30:41.648Z,18.03
2022-10-17T03:33:12.175Z,18.07
2022-10-17T03:35:44.918Z,18.05
2022-10-17T03:38:15.168Z,18.11
2022-10-17T03:40:45.249Z,18.14
2022-10-17T03:43:15.395Z,18.08
2022-10-17T03:45:45.498Z,18.08
2022-10-17T03:48:15.780Z,18.02
2022-10-17T03:50:48.562Z,18.02
2022-10-17T03:53:18.793Z,18.06
2022-10-17T03:55:48.895Z,18.14
2022-10-17T03:58:19.071Z,18.20
2022-10-17T04:00:49.358Z,18.20
2022-10-17T04:03:19.536Z,18.12
2022-10-17T04:05:52.588Z,18.04
2022-10-17T04:08:22.849Z,17.95
2022-10-17T04:11:09.148Z,17.88
2022-10-17T04:13:39.488Z,17.78
2022-10-17T04:16:13.743Z,17.69
2022-10-17T04:18:55.899Z,17.67
2022-10-17T04:21:31.928Z,17.59
2022-10-17T04:24:08.133Z,17.44
2022-10-17T04:27:01.267Z,17.41
2022-10-17T04:29:33.739Z,17.33
2022-10-17T04:32:23.063Z,17.21
2022-10-17T04:34:58.945Z,17.16
2022-10-17T04:37:32.429Z,17.04
2022-10-17T04:40:05.898Z,17.03
2022-10-17T04:42:37.166Z,17.00
2022-10-17T04:45:09.351Z,17.00
2022-10-17T04:47:40.101Z,16.95
2022-10-17T04:50:11.785Z,16.94
2022-10-17T04:52:46.274Z,16.87
2022-10-17T04:55:16.419Z,16.79
2022-10-17T04:57:46.460Z,16.71
2022-10-17T05:00:23.265Z,16.70
2022-10-17T05:03:02.674Z,16.68
2022-10-17T05:05:33.534Z,16.66
2022-10-17T05:08:08.690Z,16.69
2022-10-17T05:10:43.785Z,16.67
2022-10-17T05:13:14.619Z,16.68
2022-10-17T05:15:44.552Z,16.58
2022-10-17T05:18:15.737Z,16.51
2022-10-17T05:20:47.324Z,16.54
2022-10-17T05:23:19.941Z,16.55
2022-10-17T05:25:50.189Z,16.57
2022-10-17T05:28:20.198Z,16.62
2022-10-17T05:30:50.558Z,16.59
2022-10-17T05:33:20.893Z,16.57
2022-10-17T05:35:51.059Z,16.48
2022-10-17T05:38:23.938Z,16.45
2022-10-17T05:40:54.185Z,16.41
2022-10-17T05:43:24.283Z,16.32
2022-10-17T05:45:56.344Z,16.27
2022-10-17T05:48:27.308Z,16.30
2022-10-17T05:51:02.720Z,16.26
2022-10-17T05:53:39.169Z,16.24
2022-10-17T05:56:15.623Z,16.21
2022-10-17T05:58:53.278Z,16.20
2022-10-17T06:01:33.308Z,16.21
2022-10-17T06:04:03.566Z,16.29
2022-10-17T06:06:34.595Z,16.30
2022-10-17T06:09:08.062Z,16.39
2022-10-17T06:11:41.839Z,16.46
2022-10-17T06:14:11.935Z,16.50
2022-10-17T06:16:44.039Z,16.60
2022-10-17T06:19:14.338Z,16.58
2022-10-17T06:21:44.557Z,16.65
2022-10-17T06:24:25.176Z,16.72
2022-10-17T06:26:56.500Z,16.79
2022-10-17T06:29:26.666Z,16.89
2022-10-17T06:31:56.919Z,17.02
2022-10-17T06:34:27.432Z,17.09
2022-10-17T06:36:57.720Z,17.20
2022-10-17T06:39:34.019Z,17.32
2022-10-17T06:42:24.984Z,17.40
2022-10-17T06:45:11.818Z,17.51
2022-10-17T06:47:56.374Z,17.63
2022-10-17T06:50:39.757Z,17.79
2022-10-17T06:53:20.073Z,17.91
2022-10-17T06:56:14.623Z,18.02
2022-10-17T06:59:04.017Z,18.23
2022-10-17T07:01:40.688Z,18.38
2022-10-17T07:04:14.903Z,18.62
2022-10-17T07:06:45.031Z,18.83
2022-10-17T07:09:25.871Z,19.08
2022-10-17T07:11:58.625Z,19.36
2022-10-17T07:14:32.300Z,19.68
2022-10-17T07:17:03.310Z,20.04
2022-10-17T07:19:35.449Z,20.50
2022-10-17T07:22:06.147Z,21.06
2022-10-17T07:24:37.213Z,22.10
2022-10-17T07:27:32.620Z,22.55
2022-10-17T07:30:02.929Z,22.74
2022-10-17T07:32:39.599Z,23.12
2022-10-17T07:35:12.506Z,24.01
2022-10-17T07:37:44.298Z,24.54
2022-10-17T07:40:15.154Z,24.71
2022-10-17T07:42:48.971Z,24.63
2022-10-17T07:45:20.381Z,24.79
2022-10-17T07:47:50.620Z,25.03
2022-10-17T07:50:22.766Z,25.44
2022-10-17T07:52:52.904Z,25.57
2022-10-17T07:55:23.439Z,25.92
2022-10-17T07:57:56.246Z,26.62
2022-10-17T08:00:26.374Z,26.99
2022-10-17T08:02:56.456Z,26.81
2022-10-17T08:05:26.585Z,26.24
2022-10-17T08:07:57.667Z,26.14
2022-10-17T08:10:29.801Z,26.35
2022-10-17T08:13:02.561Z,26.83
2022-10-17T08:15:32.704Z,27.39
2022-10-17T08:18:03.062Z,28.06
2022-10-17T08:20:33.390Z,28.45
2022-10-17T08:23:03.480Z,28.80
2022-10-17T08:25:33.660Z,28.72
2022-10-17T08:30:56.219Z,28.66
2022-10-17T08:33:26.297Z,28.41
2022-10-17T08:35:56.647Z,28.88
2022-10-17T08:38:27.971Z,29.41
2022-10-17T08:41:00.723Z,29.76
2022-10-17T08:44:05.176Z,29.95
2022-10-17T08:46:39.770Z,30.16
2022-10-17T08:49:22.503Z,30.52
2022-10-17T08:52:00.764Z,30.55
2022-10-17T08:54:43.208Z,30.47
2022-10-17T08:57:16.300Z,31.24
2022-10-17T08:59:54.301Z,31.55
2022-10-17T09:02:42.693Z,32.10
2022-10-17T09:05:35.583Z,32.62
2022-10-17T09:08:35.624Z,33.09
2022-10-17T09:11:31.077Z,33.26
2022-10-17T09:14:14.040Z,33.25
2022-10-17T09:17:10.624Z,33.38
2022-10-17T09:19:46.043Z,33.19
2022-10-17T09:22:22.980Z,32.99
2022-10-17T09:24:57.688Z,32.79
2022-10-17T09:27:37.552Z,33.18
2022-10-17T09:30:43.586Z,32.89
2022-10-17T09:33:34.391Z,32.83
2022-10-17T09:36:09.233Z,32.91
2022-10-17T09:38:44.361Z,33.35
2022-10-17T09:44:21.797Z,33.02
2022-10-17T09:47:25.052Z,32.56
2022-10-17T09:49:58.076Z,31.95
2022-10-17T09:52:34.067Z,32.07
2022-10-17T09:55:09.496Z,32.55
2022-10-17T09:57:57.618Z,32.45
2022-10-17T10:00:31.012Z,31.93
2022-10-17T10:03:13.685Z,32.12
2022-10-17T10:06:03.414Z,32.88
2022-10-17T10:08:35.841Z,33.04
2022-10-17T10:11:14.040Z,32.71
2022-10-17T10:13:52.009Z,32.73
2022-10-17T10:16:27.180Z,33.30
2022-10-17T10:18:58.783Z,33.34
2022-10-17T10:21:31.671Z,33.18
2022-10-17T10:24:15.407Z,33.29
2022-10-17T10:26:49.226Z,33.32
2022-10-17T10:29:30.864Z,33.20
2022-10-17T10:32:11.610Z,33.33
2022-10-17T10:34:50.613Z,33.58
2022-10-17T10:37:27.454Z,33.90
2022-10-17T10:40:01.261Z,34.10
2022-10-17T10:42:35.017Z,34.34
2022-10-17T10:45:42.837Z,34.26
2022-10-17T10:48:23.348Z,34.74
2022-10-17T10:50:57.235Z,35.44
2022-10-17T10:53:44.597Z,36.15
2022-10-17T10:56:21.324Z,36.99
2022-10-17T10:58:58.644Z,37.47
2022-10-17T11:01:36.160Z,38.15
2022-10-17T11:04:25.215Z,38.77
2022-10-17T11:07:03.861Z,39.37
2022-10-17T11:09:51.753Z,40.22
2022-10-17T11:12:28.162Z,40.90
2022-10-17T11:15:05.113Z,41.34
2022-10-17T11:17:41.784Z,41.83
2022-10-17T11:20:23.554Z,42.18
2022-10-17T11:23:01.704Z,42.83
2022-10-17T11:25:40.235Z,43.44
2022-10-17T11:28:16.383Z,43.49
2022-10-17T11:30:53.435Z,41.97
2022-10-17T11:33:31.417Z,40.72
2022-10-17T11:36:07.526Z,41.01
2022-10-17T11:38:48.966Z,42.04
2022-10-17T11:41:32.641Z,42.94
2022-10-17T11:44:11.884Z,43.06
2022-10-17T11:46:44.791Z,42.82
2022-10-17T11:49:20.667Z,43.56
2022-10-17T11:52:10.466Z,44.25
2022-10-17T11:54:46.005Z,44.43
2022-10-17T11:57:40.625Z,44.25
2022-10-17T12:00:30.726Z,44.50
2022-10-17T12:03:18.765Z,45.57
2022-10-17T12:05:57.735Z,44.31
2022-10-17T12:08:34.886Z,43.14
2022-10-17T12:11:13.604Z,44.56
2022-10-17T12:13:56.537Z,45.77
2022-10-17T12:16:48.402Z,46.30
2022-10-17T12:19:37.119Z,46.59
2022-10-17T12:22:25.983Z,46.36
2022-10-17T12:25:00.740Z,46.38
2022-10-17T12:27:46.260Z,46.36
2022-10-17T12:30:30.344Z,46.24
2022-10-17T12:33:07.415Z,46.48
2022-10-17T12:35:41.014Z,46.31
2022-10-17T12:38:31.988Z,46.20
2022-10-17T12:41:04.710Z,46.07
2022-10-17T12:43:52.574Z,46.36
2022-10-17T12:46:47.386Z,46.69
2022-10-17T12:49:42.062Z,47.67
2022-10-17T12:52:29.775Z,47.89
2022-10-17T12:55:15.207Z,47.58
2022-10-17T12:57:58.818Z,46.95
2022-10-17T13:00:37.152Z,46.64
2022-10-17T13:03:20.795Z,46.68
2022-10-17T13:05:54.588Z,46.72
2022-10-17T13:08:28.971Z,45.62
2022-10-17T13:11:00.250Z,44.83
2022-10-17T13:13:44.602Z,44.18
2022-10-17T13:16:33.181Z,43.47
2022-10-17T13:19:16.553Z,43.16
2022-10-17T13:21:56.173Z,42.27
2022-10-17T13:24:33.389Z,41.34
2022-10-17T13:27:04.800Z,40.40
2022-10-17T13:29:35.879Z,40.02
2022-10-17T13:32:08.467Z,38.80
2022-10-17T13:34:41.192Z,38.37
2022-10-17T13:37:17.448Z,37.53
2022-10-17T13:39:55.646Z,36.14
2022-10-17T13:42:32.291Z,35.23
2022-10-17T13:45:02.947Z,34.56
2022-10-17T13:47:39.807Z,33.60
2022-10-17T13:50:43.555Z,33.21
2022-10-17T13:53:25.659Z,32.72
2022-10-17T13:56:22.864Z,32.20
2022-10-17T13:58:52.322Z,31.96
2022-10-17T14:01:24.990Z,32.20
2022-10-17T14:04:07.622Z,32.44
2022-10-17T14:06:49.474Z,32.57
2022-10-17T14:09:25.703Z,32.95
2022-10-17T14:12:06.840Z,32.95
2022-10-17T14:14:58.029Z,32.80
2022-10-17T14:17:30.066Z,32.49
2022-10-17T14:20:34.078Z,32.34
2022-10-17T14:23:21.392Z,32.04
2022-10-17T14:25:50.018Z,31.82
2022-10-17T14:28:20.120Z,31.50
2022-10-17T14:30:56.707Z,31.43
2022-10-17T14:33:32.274Z,31.55
2022-10-17T14:36:05.557Z,32.00
2022-10-17T14:38:38.834Z,32.13
2022-10-17T14:44:11.546Z,31.60
2022-10-17T14:46:51.010Z,31.29
2022-10-17T14:49:29.211Z,30.88
2022-10-17T14:52:23.573Z,30.63
2022-10-17T14:54:56.484Z,30.43
2022-10-17T14:57:31.334Z,30.22
2022-10-17T15:00:02.007Z,29.99
2022-10-17T15:02:33.585Z,29.74
2022-10-17T15:05:03.893Z,29.47
2022-10-17T15:07:33.974Z,29.22
2022-10-17T15:10:07.224Z,28.75
2022-10-17T15:12:37.654Z,28.50
2022-10-17T15:15:09.216Z,28.39
2022-10-17T15:17:39.497Z,28.24
2022-10-17T15:20:18.244Z,28.10
2022-10-17T15:22:48.727Z,27.94
2022-10-17T15:25:21.770Z,27.79
2022-10-17T15:27:51.983Z,27.56
2022-10-17T15:30:24.887Z,27.32
2022-10-17T15:32:55.554Z,27.06
2022-10-17T15:35:26.202Z,26.87
2022-10-17T15:37:56.433Z,26.70
2022-10-17T15:40:31.042Z,26.41
2022-10-17T15:43:01.381Z,26.18
2022-10-17T15:45:31.245Z,26.00
2022-10-17T15:48:10.064Z,25.81
2022-10-17T15:50:40.308Z,25.69
2022-10-17T15:53:15.112Z,25.54
2022-10-17T15:55:50.991Z,25.44
2022-10-17T15:58:22.073Z,25.27
2022-10-17T16:00:52.339Z,25.13
2022-10-17T16:06:14.286Z,24.74
2022-10-17T16:08:44.520Z,24.63
2022-10-17T16:11:22.607Z,24.45
2022-10-17T16:13:56.460Z,24.34
2022-10-17T16:16:26.671Z,24.22
2022-10-17T16:18:56.944Z,24.07
2022-10-17T16:21:36.797Z,23.97
2022-10-17T16:24:07.918Z,23.82
2022-10-17T16:26:40.737Z,23.76
2022-10-17T16:29:10.895Z,23.67
2022-10-17T16:31:45.903Z,23.53
2022-10-17T16:34:17.550Z,23.43
2022-10-17T16:36:47.715Z,23.34
2022-10-17T16:39:17.934Z,23.27
2022-10-17T16:41:53.581Z,23.22
2022-10-17T16:44:26.364Z,23.11
2022-10-17T16:46:56.559Z,23.04
2022-10-17T16:49:26.657Z,22.97
2022-10-17T16:51:56.787Z,22.77
2022-10-17T16:54:26.989Z,22.69
2022-10-17T16:57:00.201Z,22.69
2022-10-17T16:59:30.948Z,22.62
2022-10-17T17:02:01.050Z,22.61
2022-10-17T17:04:31.308Z,22.57
2022-10-17T17:07:01.432Z,22.51
2022-10-17T17:09:31.765Z,22.45
2022-10-17T17:12:04.546Z,22.44
2022-10-17T17:14:34.991Z,22.29
2022-10-17T17:17:05.148Z,22.22
2022-10-17T17:19:35.468Z,22.19
2022-10-17T17:22:05.557Z,22.15
2022-10-17T17:24:35.669Z,22.07
2022-10-17T17:27:10.021Z,22.00
2022-10-17T17:29:42.933Z,21.96
2022-10-17T17:32:14.512Z,21.93
2022-10-17T17:34:44.662Z,21.92
2022-10-17T17:37:14.733Z,21.91
2022-10-17T17:39:45.549Z,21.87
2022-10-17T17:42:18.211Z,21.86
2022-10-17T17:44:48.632Z,21.84
2022-10-17T17:47:18.719Z,21.79
2022-10-17T17:49:48.808Z,21.72
2022-10-17T17:52:19.321Z,21.70
2022-10-17T17:54:49.413Z,21.63
2022-10-17T17:57:22.179Z,21.58
2022-10-17T17:59:52.472Z,21.57
2022-10-17T18:02:22.596Z,21.56
2022-10-17T18:04:52.683Z,21.53
2022-10-17T18:07:22.790Z,21.56
2022-10-17T18:09:53.165Z,21.51
2022-10-17T18:12:26.507Z,21.48
2022-10-17T18:14:56.594Z,21.46
2022-10-17T18:17:26.778Z,21.39
2022-10-17T18:19:56.914Z,21.32
2022-10-17T18:22:27.344Z,21.26
2022-10-17T18:24:57.527Z,21.27
2022-10-17T18:27:30.222Z,21.24
2022-10-17T18:30:00.509Z,21.20
2022-10-17T18:32:33.333Z,21.19
2022-10-17T18:35:03.560Z,21.12
2022-10-17T18:37:33.781Z,21.10
2022-10-17T18:40:03.920Z,21.09
2022-10-17T18:42:36.673Z,21.10
2022-10-17T18:45:08.389Z,21.05
2022-10-17T18:47:38.625Z,21.03
2022-10-17T18:50:09.816Z,20.98
2022-10-17T18:52:40.596Z,20.97
2022-10-17T18:55:12.334Z,20.97
2022-10-17T18:57:45.403Z,21.03
2022-10-17T19:00:17.293Z,20.98
2022-10-17T19:02:47.648Z,20.98
2022-10-17T19:05:17.989Z,21.01
2022-10-17T19:07:48.083Z,21.07
2022-10-17T19:10:18.349Z,20.98
2022-10-17T19:12:51.137Z,20.86
2022-10-17T19:15:23.749Z,20.78
2022-10-17T19:17:56.169Z,20.76
2022-10-17T19:20:26.709Z,20.73
2022-10-17T19:22:56.946Z,20.58
2022-10-17T19:25:30.389Z,20.49
2022-10-17T19:28:03.179Z,20.47
2022-10-17T19:30:33.297Z,20.48
2022-10-17T19:33:03.409Z,20.49
2022-10-17T19:35:33.969Z,20.49
2022-10-17T19:38:04.172Z,20.57
2022-10-17T19:40:35.519Z,20.60
2022-10-17T19:43:08.251Z,20.58
2022-10-17T19:45:38.356Z,20.54
2022-10-17T19:48:09.376Z,20.49
2022-10-17T19:50:41.349Z,20.49
2022-10-17T19:53:11.760Z,20.44
2022-10-17T19:55:42.178Z,20.38
2022-10-17T19:58:15.388Z,20.31
2022-10-17T20:00:49.986Z,20.23
2022-10-17T20:03:20.634Z,20.22
2022-10-17T20:05:51.158Z,20.23
2022-10-17T20:08:22.063Z,20.17
2022-10-17T20:10:52.270Z,20.17
2022-10-17T20:13:25.619Z,20.21
2022-10-17T20:15:59.989Z,20.26
2022-10-17T20:18:30.860Z,20.26
2022-10-17T20:21:07.196Z,20.23
2022-10-17T20:23:38.424Z,20.31
2022-10-17T20:26:25.962Z,20.39
2022-10-17T20:29:11.217Z,20.37
2022-10-17T20:31:43.535Z,20.34
2022-10-17T20:34:19.043Z,20.35
2022-10-17T20:36:50.383Z,20.37
2022-10-17T20:39:23.055Z,20.33
2022-10-17T20:41:53.229Z,20.27
2022-10-17T20:44:26.051Z,20.28
2022-10-17T20:47:02.094Z,20.30
2022-10-17T20:49:33.925Z,20.31
2022-10-17T20:52:04.817Z,20.28
2022-10-17T20:54:34.861Z,20.23
2022-10-17T20:57:05.185Z,20.23
2022-10-17T20:59:38.810Z,20.25
2022-10-17T21:02:09.764Z,20.24
2022-10-17T21:04:47.421Z,20.35
2022-10-17T21:07:17.865Z,20.29
2022-10-17T21:09:48.320Z,20.24
2022-10-17T21:12:26.228Z,20.22
2022-10-17T21:15:11.214Z,20.24
2022-10-17T21:17:41.318Z,20.23
2022-10-17T21:20:13.751Z,20.20
2022-10-17T21:22:43.840Z,20.13
2022-10-17T21:25:14.019Z,20.11
2022-10-17T21:27:44.124Z,20.07
2022-10-17T21:30:16.950Z,20.04
2022-10-17T21:32:51.423Z,19.93
2022-10-17T21:35:22.277Z,19.85
2022-10-17T21:37:52.410Z,19.64
2022-10-17T21:40:22.521Z,19.47
2022-10-17T21:42:52.610Z,19.39
2022-10-17T21:45:26.087Z,19.33
2022-10-17T21:48:12.128Z,19.32
2022-10-17T21:50:43.822Z,19.34
2022-10-17T21:53:13.988Z,19.36
2022-10-17T21:55:44.093Z,19.25
2022-10-17T21:58:14.268Z,19.10
2022-10-17T22:00:46.982Z,18.91
2022-10-17T22:03:17.124Z,18.85
2022-10-17T22:05:48.135Z,18.79
2022-10-17T22:08:18.289Z,18.78
2022-10-17T22:10:48.391Z,18.78
2022-10-17T22:13:18.548Z,18.71
2022-10-17T22:15:51.251Z,18.72
2022-10-17T22:18:21.332Z,18.72
2022-10-17T22:20:51.520Z,18.72
2022-10-17T22:23:22.469Z,18.73
2022-10-17T22:25:56.598Z,18.72
2022-10-17T22:28:28.364Z,18.71
2022-10-17T22:31:01.489Z,18.72
2022-10-17T22:33:32.097Z,18.72
2022-10-17T22:36:02.260Z,18.70
2022-10-17T22:38:33.036Z,18.67
2022-10-17T22:41:03.272Z,18.63
2022-10-17T22:43:34.133Z,18.60
2022-10-17T22:46:09.054Z,18.56
2022-10-17T22:48:40.230Z,18.56
2022-10-17T22:51:11.033Z,18.51
2022-10-17T22:53:41.431Z,18.49
2022-10-17T22:56:15.602Z,18.40
2022-10-17T22:58:46.429Z,18.39
2022-10-17T23:01:21.329Z,18.37
2022-10-17T23:03:51.885Z,18.31
2022-10-17T23:06:22.579Z,18.31
2022-10-17T23:08:52.958Z,18.31
2022-10-17T23:11:23.627Z,18.28
2022-10-17T23:13:53.989Z,18.20
2022-10-17T23:16:26.869Z,18.17
2022-10-17T23:18:57.041Z,18.14
2022-10-17T23:21:27.214Z,18.09
2022-10-17T23:23:57.377Z,18.06
2022-10-17T23:26:27.505Z,18.05
2022-10-17T23:28:58.200Z,18.05
2022-10-17T23:31:30.998Z,18.06
2022-10-17T23:34:01.995Z,18.06
2022-10-17T23:39:22.275Z,18.06
2022-10-17T23:41:52.278Z,18.06
2022-10-17T23:44:23.640Z,18.05
2022-10-17T23:46:56.395Z,18.09
2022-10-17T23:49:26.964Z,18.09
2022-10-17T23:51:57.084Z,18.07
2022-10-17T23:54:27.636Z,18.03
2022-10-17T23:56:57.837Z,17.96
2022-10-17T23:59:28.036Z,17.97
